Tiempo atmosférico en la estación meteorológica de Esterri d?Àneu, Lleida (940 m.)



Fecha
DESCASC
Temp. máxima en grados centígrados (hora)
DESCASC
Temp. mínima en grados centígrados (hora)
DESCASC
Temp. media en grados centígrados
DESCASC
Racha de viento máxima en m/sg (hora)
DESCASC
Velocidad máxima media en intervalos de 10 minutos(hora)
DESCASC
Precipitaciones diarias en mm
DESCASC
Precipitaciones de 00:00 a 06:00 en mm
DESCASC
Precipitaciones de 06:00 a 12:00 en mm
DESCASC
Precipitaciones de 12:00 a 18:00 en mm
DESCASC
Precipitaciones de 18:00 a 24:00 en mm
DESCASC

Gráficas

Temp. máximas Temp. mínimas Temp. medias Precipitaciones Rachas de viento máximas Velocidades máximas media en intervalos de 10 minutos

Datos horarios

Fecha y hora oficial Temperatura (ºC) Velocidad del viento (km/h) Dirección del viento Racha (km/h) Dirección de racha Precipitación (mm) Presión (hPa) Tendencia (hPa) Humedad (%)
2018-05-27 23:00:00 -- -- -- -- -- -- -- -- --
2018-05-27 22:00:00 12.8 2 Este 8 Noroeste 1.8 -- -- 91
2018-05-27 21:00:00 13.5 3 Oeste 16 Este 1.2 -- -- 85
2018-05-27 20:00:00 15 5 Nordeste 45 Norte 1.8 -- -- 71
2018-05-27 19:00:00 17 16 Norte 44 Oeste 0 -- -- 54
2018-05-27 18:00:00 19.6 12 Norte 34 Noroeste 0 -- -- 57
2018-05-27 17:00:00 21.4 12 Norte 29 Norte 0 -- -- 57
2018-05-27 16:00:00 26.1 6 Sur 18 Sur 0 -- -- 32
2018-05-27 15:00:00 26.3 7 Sur 21 Sur 0 -- -- 36
2018-05-27 14:00:00 25.9 9 Sur 22 Sudoeste 0 -- -- 36
2018-05-27 13:00:00 24.5 9 Sur 17 Sudoeste 0 -- -- 40
2018-05-27 12:00:00 21.6 3 Sur 12 Sur 0 -- -- 53
2018-05-27 11:00:00 19.1 3 Sudeste 8 Sudoeste 0 -- -- 57
2018-05-27 10:00:00 16.4 2 Nordeste 6 Nordeste 0 -- -- 72
2018-05-27 09:00:00 12.7 0 Calma 3 Este 0 -- -- 91
2018-05-27 08:00:00 11 0 Calma 4 Noroeste 0 -- -- 99
2018-05-27 07:00:00 10.4 0 Calma 4 Sur 1 -- -- 98
2018-05-27 06:00:00 11.5 0 Calma 4 Noroeste 0 -- -- 91
2018-05-27 05:00:00 12 0 Calma 4 Sudoeste 0 -- -- 89
2018-05-27 04:00:00 12.7 2 Sudoeste 4 Sur 0 -- -- 87
2018-05-27 03:00:00 13.3 0 Calma 8 Sur 0 -- -- 85
2018-05-27 02:00:00 13.7 0 Calma 2 Este 0 -- -- 82
2018-05-27 01:00:00 15 0 Calma 3 Noroeste 0 -- -- 76
2018-05-27 00:00:00 15.7 0 Calma 4 Norte 0 -- -- 75
2018-05-26 23:00:00 16.5 0 Calma 5 Norte 0 -- -- 69
2018-05-26 22:00:00 18.2 3 Oeste 9 Sur 0 -- -- 63
2018-05-26 21:00:00 19.8 3 Sur 9 Sudoeste 0 -- -- 57
2018-05-26 20:00:00 21.2 2 Sur 17 Sur 0 -- -- 51
2018-05-26 19:00:00 21.9 3 Sur 11 Sur 0 -- -- 51
2018-05-26 18:00:00 22.8 5 Sur 19 Sur 0 -- -- 46
2018-05-26 17:00:00 23.6 6 Sur 22 Sur 0 -- -- 45
2018-05-26 16:00:00 23.3 8 Sur 21 Sur 0 -- -- 47
2018-05-26 15:00:00 23 9 Sur 22 Sur 0 -- -- 49
2018-05-26 14:00:00 22.1 9 Sur 23 Sur 0 -- -- 48
2018-05-26 13:00:00 21.2 8 Sur 21 Sur 0 -- -- 49
2018-05-26 12:00:00 19.7 7 Sudeste 19 Sur 0 -- -- 54
2018-05-26 11:00:00 19.3 4 Sur 23 Sur 0 -- -- 53
2018-05-26 10:00:00 19 8 Sudeste 25 Sur 0 -- -- 55
2018-05-26 09:00:00 17.3 3 Sur 13 Sur 0 -- -- 63
2018-05-26 08:00:00 16.5 0 Calma 17 Sudoeste 0 -- -- 62
2018-05-26 07:00:00 15.4 3 Sur 12 Sudoeste 0 -- -- 62
2018-05-26 06:00:00 13.5 2 Nordeste 6 Oeste 0 -- -- 77
2018-05-26 05:00:00 13.2 0 Calma 10 Este 0 -- -- 79
2018-05-26 04:00:00 12 2 Nordeste 6 Oeste 0 -- -- 80
2018-05-26 03:00:00 11.4 0 Calma 5 Este 0 -- -- 80
2018-05-26 02:00:00 12.3 0 Calma 5 Oeste 0 -- -- 76
2018-05-26 01:00:00 13.2 0 Calma 4 Noroeste 0 -- -- 72
2018-05-26 00:00:00 14.5 0 Calma 5 Sudeste 0 -- -- 67
2018-05-25 23:00:00 16.4 0 Calma 10 Sur 0 -- -- 61
2018-05-25 22:00:00 18.5 2 Sudoeste 13 Sudeste 0 -- -- 51
2018-05-25 21:00:00 20.5 4 Sur 21 Sur 0 -- -- 45
2018-05-25 20:00:00 23 6 Sur 27 Sudoeste 0 -- -- 38
2018-05-25 19:00:00 24.7 5 Sur 23 Sudoeste 0 -- -- 35
2018-05-25 18:00:00 25.2 5 Sudoeste 30 Sudoeste 0 -- -- 36
2018-05-25 17:00:00 25.8 8 Sur 22 Sudeste 0 -- -- 34
2018-05-25 16:00:00 24.3 6 Sur 14 Sudeste 0 -- -- 39
2018-05-25 15:00:00 20.7 0 Calma 6 Noroeste 0 -- -- 54
2018-05-25 14:00:00 16.8 0 Calma 6 Oeste 0 -- -- 76
2018-05-25 13:00:00 16 0 Calma 9 Sudeste 0 -- -- 76
2018-05-25 12:00:00 13.6 3 Noroeste 9 Noroeste 0.2 -- -- 90
2018-05-25 11:00:00 12.5 2 Norte 7 Noroeste 1.2 -- -- 93
2018-05-25 10:00:00 11.9 0 Calma 5 Sur 0.8 -- -- 93
2018-05-25 09:00:00 11.3 0 Calma 4 Nordeste 0 -- -- 91
2018-05-25 08:00:00 9.9 0 Calma 4 Sur 0 -- -- 95
2018-05-25 07:00:00 9.4 0 Calma 5 Oeste 0 -- -- 95
2018-05-25 06:00:00 9.6 0 Calma 3 Sur 0 -- -- 94
2018-05-25 05:00:00 10.3 0 Calma 4 Oeste 0 -- -- 93
2018-05-25 04:00:00 10.8 2 Sur 4 Sur 0 -- -- 92
2018-05-25 03:00:00 11.4 0 Calma 5 Sur 0 -- -- 91
2018-05-25 02:00:00 12 0 Calma 4 Sur 0 -- -- 89
2018-05-25 01:00:00 12.5 0 Calma 5 Noroeste 0 -- -- 87
2018-05-25 00:00:00 13.2 0 Calma 4 Nordeste 0 -- -- 84
2018-05-24 23:00:00 14.9 0 Calma 4 Noroeste 0 -- -- 77
2018-05-24 22:00:00 16.7 0 Calma 9 Norte 0 -- -- 73
2018-05-24 21:00:00 19 4 Norte 9 Nordeste 0 -- -- 63
2018-05-24 20:00:00 20.8 0 Calma 5 Norte 0 -- -- 63
2018-05-24 19:00:00 21.3 2 Norte 7 Oeste 0 -- -- 55
2018-05-24 18:00:00 22.3 2 Noroeste 14 Norte 0 -- -- 46
2018-05-24 17:00:00 20.3 7 Nordeste 32 Norte 0 -- -- 52
2018-05-24 16:00:00 21.9 4 Sudeste 24 Sur 0 -- -- 47
2018-05-24 15:00:00 23.4 9 Sur 27 Sur 0 -- -- 45
2018-05-24 14:00:00 22.3 12 Sur 24 Sur 0 -- -- 47
2018-05-24 13:00:00 19.2 2 Sur 11 Sudoeste 0 -- -- 61
2018-05-24 12:00:00 16.3 3 Sur 9 Sur 0 -- -- 73
2018-05-24 11:00:00 14.1 0 Calma 5 Sudeste 0 -- -- 85
2018-05-24 10:00:00 12.8 2 Oeste 6 Sur 0 -- -- 91
2018-05-24 09:00:00 11.4 3 Oeste 8 Nordeste 0.4 -- -- 100
2018-05-24 08:00:00 10.9 2 Noroeste 6 Norte 0 -- -- 100
2018-05-24 07:00:00 10.2 0 Calma 5 Noroeste 1 -- -- 99
2018-05-24 06:00:00 10.7 0 Calma 5 Sur 0 -- -- 95
2018-05-24 05:00:00 10.9 0 Calma 6 Sur 0 -- -- 95
2018-05-24 04:00:00 10.9 2 Nordeste 6 Norte 0 -- -- 94
2018-05-24 03:00:00 11.4 0 Calma 3 Sudoeste 0 -- -- 93
2018-05-24 02:00:00 12.3 0 Calma 4 Sudeste 0 -- -- 92
2018-05-24 01:00:00 13.2 0 Calma 10 Este 0 -- -- 87
2018-05-24 00:00:00 13.7 3 Sudeste 10 Este 1.8 -- -- 85
2018-05-23 23:00:00 15.6 0 Calma 10 Norte 0 -- -- 66
2018-05-23 22:00:00 16.6 6 Nordeste 17 Nordeste 0 -- -- 57
2018-05-23 21:00:00 18 6 Nordeste 15 Noroeste 0 -- -- 51
2018-05-23 20:00:00 19.2 2 Norte 9 Sur 0 -- -- 44
2018-05-23 19:00:00 19.6 4 Sudeste 21 Este 0 -- -- 40
2018-05-23 18:00:00 20.7 8 Sudeste 30 Sudoeste 0 -- -- 39
2018-05-23 17:00:00 21.5 6 Sur 22 Sudoeste 0 -- -- 40
2018-05-23 16:00:00 23.6 6 Sur 16 Sudoeste 0 -- -- 35
2018-05-23 15:00:00 22.8 7 Sur 13 Sur 0 -- -- 38
2018-05-23 14:00:00 22.3 5 Sur 14 Sudoeste 0 -- -- 34
2018-05-23 13:00:00 20.8 4 Sudoeste 11 Sudoeste 0 -- -- 33
2018-05-23 12:00:00 18.3 3 Sur 7 Sudeste 0 -- -- 48
2018-05-23 11:00:00 15.5 2 Sudeste 5 Sudeste 0 -- -- 59
2018-05-23 10:00:00 12.2 0 Calma 4 Sur 0 -- -- 72
2018-05-23 09:00:00 7.8 0 Calma 4 Norte 0 -- -- 94
2018-05-23 08:00:00 6.8 0 Calma 2 Sur 0 -- -- 95
2018-05-23 07:00:00 6.1 2 Sur 4 Sur 0 -- -- 95
2018-05-23 06:00:00 6.2 0 Calma 5 Sudoeste 0 -- -- 94
2018-05-23 05:00:00 6.9 0 Calma 6 Noroeste 0 -- -- 93
2018-05-23 04:00:00 7.6 0 Calma 4 Sur 0 -- -- 92
2018-05-23 03:00:00 8.6 2 Noroeste 4 Sur 0 -- -- 91
2018-05-23 02:00:00 8.8 0 Calma 5 Oeste 0 -- -- 91
2018-05-23 01:00:00 9.9 0 Calma 7 Nordeste 0 -- -- 87
2018-05-23 00:00:00 11 0 Calma 4 Noroeste 0 -- -- 84
2018-05-22 23:00:00 12.6 0 Calma 12 Este 0 -- -- 81
2018-05-22 22:00:00 13.7 6 Este 14 Este 0 -- -- 75
2018-05-22 21:00:00 14.6 8 Sudeste 16 Este 0 -- -- 69
2018-05-22 20:00:00 16 5 Sudeste 16 Sudoeste 0 -- -- 61
2018-05-22 19:00:00 17.4 7 Sur 21 Sur 0 -- -- 54
2018-05-22 18:00:00 19.9 8 Noroeste 24 Noroeste 0 -- -- 41
2018-05-22 17:00:00 21.9 11 Noroeste 21 Noroeste 0 -- -- 37
2018-05-22 16:00:00 21.9 8 Norte 24 Noroeste 0 -- -- 34
2018-05-22 15:00:00 20.9 7 Norte 23 Norte 0 -- -- 33
2018-05-22 14:00:00 19.6 8 Nordeste 21 Nordeste 0 -- -- 37
2018-05-22 13:00:00 18.2 8 Noroeste 19 Noroeste 0 -- -- 44
2018-05-22 12:00:00 15.1 3 Sur 6 Sur 0 -- -- 72
2018-05-22 11:00:00 12.8 0 Calma 5 Sudeste 0 -- -- 83
2018-05-22 10:00:00 10.9 0 Calma 4 Este 0.2 -- -- 93
2018-05-22 09:00:00 10 0 Calma 3 Sur 0 -- -- 95
2018-05-22 08:00:00 9.4 0 Calma 2 Sudeste 0 -- -- 96
2018-05-22 07:00:00 9.1 0 Calma 2 Sur 0 -- -- 96
2018-05-22 06:00:00 8.9 0 Calma 4 Sudeste 0 -- -- 96
2018-05-22 05:00:00 8.8 0 Calma 4 Sur 0 -- -- 96
2018-05-22 04:00:00 9 0 Calma 3 Sudoeste 0 -- -- 95
2018-05-22 03:00:00 9.6 0 Calma 6 Nordeste 0 -- -- 94
2018-05-22 02:00:00 10.5 0 Calma 5 Norte 0 -- -- 92
2018-05-22 01:00:00 11.4 0 Calma 3 Noroeste 0 -- -- 92
2018-05-22 00:00:00 11.7 0 Calma 6 Norte 0 -- -- 90
2018-05-21 23:00:00 11.7 0 Calma 7 Norte 0 -- -- 89
2018-05-21 22:00:00 12.5 3 Norte 8 Norte 0 -- -- 88
2018-05-21 21:00:00 13.8 2 Norte 4 Nordeste 0 -- -- 87
2018-05-21 20:00:00 14.1 0 Calma 9 Nordeste 0.4 -- -- 84
2018-05-21 19:00:00 15.2 3 Norte 6 Noroeste 0.4 -- -- 73
2018-05-21 18:00:00 14.8 5 Norte 14 Nordeste 0 -- -- 70
2018-05-21 17:00:00 14.5 10 Nordeste 29 Noroeste 0 -- -- 63
2018-05-21 16:00:00 16.6 6 Nordeste 28 Sudeste 0.2 -- -- 54
2018-05-21 15:00:00 18.7 7 Sur 19 Sudoeste 0 -- -- 54
2018-05-21 14:00:00 20.9 5 Oeste 14 Sur 0 -- -- 40
2018-05-21 13:00:00 19 6 Oeste 13 Sudoeste 0 -- -- 48
2018-05-21 12:00:00 16.1 5 Este 11 Este 0 -- -- 61
2018-05-21 11:00:00 15.4 3 Sudeste 6 Este 0 -- -- 61
2018-05-21 10:00:00 12.7 2 Sudeste 4 Este 0 -- -- 72
2018-05-21 09:00:00 9.7 0 Calma 4 Noroeste 0 -- -- 88
2018-05-21 08:00:00 8.8 0 Calma 4 Sudoeste 0 -- -- 93
2018-05-21 07:00:00 9 0 Calma 3 Sudoeste 0 -- -- 92
2018-05-21 06:00:00 9.4 0 Calma 0 Calma 0 -- -- 90
2018-05-21 05:00:00 9.7 0 Calma 3 Norte 0 -- -- 89
2018-05-21 04:00:00 9.9 0 Calma 4 Sur 0 -- -- 87
2018-05-21 03:00:00 10.4 2 Norte 5 Norte 0 -- -- 82
2018-05-21 02:00:00 11.3 2 Norte 12 Nordeste 0 -- -- 77
2018-05-21 01:00:00 11.8 6 Nordeste 12 Norte 0 -- -- 73
2018-05-21 00:00:00 12.1 4 Nordeste 10 Nordeste 0 -- -- 74
2018-05-20 23:00:00 13 4 Nordeste 10 Nordeste 0 -- -- 69
2018-05-20 22:00:00 13.5 5 Nordeste 15 Nordeste 0 -- -- 75
2018-05-20 21:00:00 14.1 2 Este 14 Este 0 -- -- 71
2018-05-20 20:00:00 14.4 5 Sudeste 17 Este 0 -- -- 66
2018-05-20 19:00:00 15.2 6 Sudeste 20 Sur 0 -- -- 65
2018-05-20 18:00:00 16.5 8 Sur 23 Sudoeste 0 -- -- 57
2018-05-20 17:00:00 19.6 5 Sur 17 Norte 0 -- -- 44
2018-05-20 16:00:00 18.8 5 Norte 20 Oeste 0 -- -- 45
2018-05-20 15:00:00 19.1 3 Nordeste 21 Sur 0 -- -- 41
2018-05-20 14:00:00 18.5 8 Sudeste 17 Sudeste 0 -- -- 48
2018-05-20 13:00:00 17.5 3 Sudeste 5 Sudoeste 0 -- -- 52
2018-05-20 12:00:00 16 3 Sudeste 6 Sur 0 -- -- 52
2018-05-20 11:00:00 14.8 3 Sur 7 Sudeste 0 -- -- 54
2018-05-20 10:00:00 12.4 2 Este 5 Este 0 -- -- 63
2018-05-20 09:00:00 8.9 0 Calma 2 Noroeste 0 -- -- 83
2018-05-20 08:00:00 6.9 0 Calma 5 Sur 0 -- -- 91
2018-05-20 07:00:00 6.6 0 Calma 4 Sudoeste 0 -- -- 92
2018-05-20 06:00:00 7 0 Calma 4 Oeste 0 -- -- 91
2018-05-20 05:00:00 7.7 0 Calma 4 Sur 0 -- -- 90
2018-05-20 04:00:00 8 0 Calma 3 Sur 0 -- -- 89
2018-05-20 03:00:00 9.1 0 Calma 6 Sur 0 -- -- 87
2018-05-20 02:00:00 10.6 0 Calma 4 Sudoeste 0 -- -- 82
2018-05-20 01:00:00 11.6 0 Calma 5 Sur 0 -- -- 79
2018-05-20 00:00:00 12.8 0 Calma 4 Sudeste 0 -- -- 72
2018-05-19 23:00:00 13.5 0 Calma 6 Sudoeste 0 -- -- 68
2018-05-19 22:00:00 14.5 3 Sudeste 14 Este 0 -- -- 60
2018-05-19 21:00:00 16.3 3 Sudeste 24 Norte 0 -- -- 54
2018-05-19 20:00:00 17.7 9 Noroeste 29 Noroeste 0 -- -- 42
2018-05-19 19:00:00 19.1 10 Norte 29 Norte 0 -- -- 38
2018-05-19 18:00:00 20.9 12 Noroeste 30 Noroeste 0 -- -- 36
2018-05-19 17:00:00 21.6 15 Noroeste 32 Norte 0 -- -- 36
2018-05-19 16:00:00 22.5 12 Noroeste 25 Noroeste 0 -- -- 35
2018-05-19 15:00:00 21.6 11 Noroeste 25 Noroeste 0 -- -- 35
2018-05-19 14:00:00 20.3 9 Noroeste 23 Noroeste 0 -- -- 36
2018-05-19 13:00:00 19.6 9 Noroeste 20 Noroeste 0 -- -- 36
2018-05-19 12:00:00 19.3 10 Noroeste 20 Nordeste 0 -- -- 38
2018-05-19 11:00:00 15.7 4 Sur 9 Sur 0 -- -- 52
2018-05-19 10:00:00 11.8 2 Este 4 Este 0 -- -- 62
2018-05-19 09:00:00 6.1 0 Calma -- -- 0 -- -- 92
2018-05-19 08:00:00 5.3 0 Calma -- -- 0 -- -- 92
2018-05-19 07:00:00 5.7 0 Calma 0 Calma 0 -- -- 91
2018-05-19 06:00:00 6.2 0 Calma -- -- 0 -- -- 90
2018-05-19 05:00:00 7.2 0 Calma 0 Calma 0 -- -- 85
2018-05-19 04:00:00 8.1 0 Calma 4 Sur 0 -- -- 83
2018-05-19 03:00:00 9.7 0 Calma 5 Sudoeste 0 -- -- 77
2018-05-19 02:00:00 11.5 0 Calma 7 Nordeste 0 -- -- 68
2018-05-19 01:00:00 13.6 4 Nordeste 12 Norte 0 -- -- 55
2018-05-19 00:00:00 14.7 3 Nordeste 10 Este 0 -- -- 53
2018-05-18 23:00:00 14.5 0 Calma 7 Nordeste 0 -- -- 56
2018-05-18 22:00:00 15.3 3 Nordeste 21 Norte 0 -- -- 54
2018-05-18 21:00:00 16.3 8 Norte 23 Noroeste 0 -- -- 51
2018-05-18 20:00:00 18 10 Noroeste 30 Noroeste 0 -- -- 45
2018-05-18 19:00:00 19.4 13 Noroeste 30 Noroeste 0 -- -- 42
2018-05-18 18:00:00 20.4 11 Noroeste 25 Noroeste 0 -- -- 37
2018-05-18 17:00:00 22.3 8 Norte 21 Noroeste 0 -- -- 31
2018-05-18 16:00:00 21.6 9 Norte 24 Noroeste 0 -- -- 29
2018-05-18 15:00:00 20.3 12 Noroeste 24 Noroeste 0 -- -- 31
2018-05-18 14:00:00 19.7 8 Noroeste 17 Noroeste 0 -- -- 32
2018-05-18 13:00:00 18 6 Noroeste 18 Norte 0 -- -- 37
2018-05-18 12:00:00 16.1 0 Calma 6 Noroeste 0 -- -- 48
2018-05-18 11:00:00 14.1 3 Sudeste 6 Sudeste 0 -- -- 56
2018-05-18 10:00:00 10.4 0 Calma 3 Este 0 -- -- 68
2018-05-18 09:00:00 5.3 0 Calma 2 Sur 0 -- -- 95
2018-05-18 08:00:00 4.5 0 Calma 3 Sudoeste 0 -- -- 94
2018-05-18 07:00:00 4.4 0 Calma 4 Sudoeste 0 -- -- 94
2018-05-18 06:00:00 5 0 Calma 4 Sudoeste 0 -- -- 93
2018-05-18 05:00:00 5.6 0 Calma 3 Sur 0 -- -- 92
2018-05-18 04:00:00 6.4 0 Calma 3 Sudeste 0 -- -- 89
2018-05-18 03:00:00 7.4 0 Calma 3 Sur 0 -- -- 86
2018-05-18 02:00:00 8.5 0 Calma 4 Sur 0 -- -- 82
2018-05-18 01:00:00 9.9 0 Calma 3 Sur 0 -- -- 75
2018-05-18 00:00:00 11.8 0 Calma 8 Nordeste 0 -- -- 66
2018-05-17 23:00:00 13.8 3 Este 9 Noroeste 0 -- -- 58
2018-05-17 22:00:00 14.8 3 Este 15 Oeste 0 -- -- 55
2018-05-17 21:00:00 16.3 3 Nordeste 22 Noroeste 0 -- -- 49
2018-05-17 20:00:00 17.1 8 Noroeste 23 Noroeste 0 -- -- 46
2018-05-17 19:00:00 18 10 Noroeste 23 Noroeste 0 -- -- 45
2018-05-17 18:00:00 19.7 11 Noroeste 22 Noroeste 0 -- -- 41
2018-05-17 17:00:00 21.1 9 Norte 23 Norte 0 -- -- 33
2018-05-17 16:00:00 21.5 10 Noroeste 25 Nordeste 0 -- -- 31
2018-05-17 15:00:00 20.6 11 Noroeste 28 Nordeste 0 -- -- 31
2018-05-17 14:00:00 20 10 Norte 25 Noroeste 0 -- -- 32
2018-05-17 13:00:00 19.7 8 Norte 24 Norte 0 -- -- 30
2018-05-17 12:00:00 16.7 2 Sudeste 7 Este 0 -- -- 36
2018-05-17 11:00:00 13.4 3 Sudeste 6 Este 0 -- -- 47
2018-05-17 10:00:00 9.6 2 Este 5 Sudeste 0 -- -- 63
2018-05-17 09:00:00 4.1 0 Calma 3 Sudoeste 0 -- -- 94
2018-05-17 08:00:00 3.5 0 Calma 4 Sur 0 -- -- 94
2018-05-17 07:00:00 3.7 0 Calma 4 Sur 0 -- -- 94
2018-05-17 06:00:00 4.3 0 Calma 4 Norte 0 -- -- 91
2018-05-17 05:00:00 4.8 0 Calma 5 Norte 0 -- -- 90
2018-05-17 04:00:00 5.8 0 Calma 3 Sudoeste 0 -- -- 88
2018-05-17 03:00:00 7.2 0 Calma 4 Norte 0 -- -- 83
2018-05-17 02:00:00 8.5 0 Calma 8 Este 0 -- -- 77
2018-05-17 01:00:00 11.2 3 Norte 14 Nordeste 0 -- -- 67
2018-05-17 00:00:00 12.7 0 Calma 13 Norte 0 -- -- 60
2018-05-16 23:00:00 14.2 4 Nordeste 13 Noroeste 0 -- -- 57
2018-05-16 22:00:00 15.1 3 Norte 15 Noroeste 0 -- -- 54
2018-05-16 21:00:00 15.5 6 Norte 18 Noroeste 0 -- -- 50
2018-05-16 20:00:00 17.2 8 Noroeste 23 Noroeste 0 -- -- 45
2018-05-16 19:00:00 17.6 8 Norte 21 Norte 0 -- -- 42
2018-05-16 18:00:00 20.1 8 Noroeste 24 Noroeste 0 -- -- 37
2018-05-16 17:00:00 19.8 12 Norte 28 Noroeste 0 -- -- 38
2018-05-16 16:00:00 19.3 11 Noroeste 27 Noroeste 0 -- -- 39
2018-05-16 15:00:00 17.8 10 Noroeste 25 Oeste 0 -- -- 44
2018-05-16 14:00:00 16.3 9 Noroeste 21 Norte 0 -- -- 50
2018-05-16 13:00:00 15.4 9 Norte 20 Noroeste 0 -- -- 53
2018-05-16 12:00:00 14.7 8 Norte 19 Noroeste 0 -- -- 57
2018-05-16 11:00:00 13.2 5 Noroeste 12 Noroeste 0 -- -- 62
2018-05-16 10:00:00 11.3 0 Calma 5 Sudeste 0 -- -- 72
2018-05-16 09:00:00 8.3 0 Calma 4 Sur 0 -- -- 85
2018-05-16 08:00:00 7.4 3 Sur 5 Sudeste 0 -- -- 90
2018-05-16 07:00:00 7.3 2 Sur 5 Oeste 0 -- -- 88
2018-05-16 06:00:00 7.3 0 Calma 6 Oeste 0 -- -- 86
2018-05-16 05:00:00 7.9 0 Calma 4 Sudeste 0 -- -- 83
2018-05-16 04:00:00 9.1 0 Calma 10 Nordeste 0 -- -- 75
2018-05-16 03:00:00 10.3 3 Norte 24 Este 0 -- -- 67
2018-05-16 02:00:00 11 11 Nordeste 22 Norte 0 -- -- 65
2018-05-16 01:00:00 11.2 8 Nordeste 21 Este 0 -- -- 66
2018-05-16 00:00:00 11 6 Nordeste 19 Nordeste 0 -- -- 66
2018-05-15 23:00:00 10.8 6 Nordeste 16 Este 0 -- -- 66
2018-05-15 22:00:00 10.7 6 Nordeste 17 Nordeste 0 -- -- 66
2018-05-15 21:00:00 10.5 5 Nordeste 11 Norte 0 -- -- 69
2018-05-15 20:00:00 10.4 4 Nordeste 17 Nordeste 0 -- -- 72
2018-05-15 19:00:00 10.9 8 Nordeste 18 Nordeste 0 -- -- 67
2018-05-15 18:00:00 11.7 5 Norte 19 Oeste 0 -- -- 62
2018-05-15 17:00:00 12.3 8 Noroeste 21 Norte 0 -- -- 60
2018-05-15 16:00:00 12.9 8 Norte 24 Norte 0 -- -- 56
2018-05-15 15:00:00 12.6 4 Norte 19 Norte 0 -- -- 54
2018-05-15 14:00:00 12.1 8 Norte 15 Noroeste 0 -- -- 59
2018-05-15 13:00:00 11.2 3 Norte 23 Norte 0 -- -- 60
2018-05-15 12:00:00 11.3 10 Norte 28 Norte 0 -- -- 53
2018-05-15 11:00:00 11.4 12 Norte 29 Norte 0 -- -- 54
2018-05-15 10:00:00 11.8 10 Norte 26 Noroeste 0 -- -- 51
2018-05-15 09:00:00 10.1 10 Norte 35 Noroeste 0 -- -- 58
2018-05-15 08:00:00 10.5 8 Norte 25 Norte 0 -- -- 58
2018-05-15 07:00:00 9.1 3 Nordeste 27 Noroeste 0 -- -- 60
2018-05-15 06:00:00 9.3 5 Norte 15 Noroeste 0 -- -- 57
2018-05-15 05:00:00 8.6 3 Nordeste 15 Norte 0 -- -- 62
2018-05-15 04:00:00 8.8 7 Norte 27 Noroeste 0 -- -- 61
2018-05-15 03:00:00 8.7 13 Norte 37 Norte 0 -- -- 58
2018-05-15 02:00:00 8.8 11 Norte 31 Norte 0 -- -- 55
2018-05-15 01:00:00 8.6 11 Norte 31 Noroeste 0 -- -- 58
2018-05-15 00:00:00 8.5 9 Noroeste 29 Norte 0 -- -- 60
2018-05-14 23:00:00 8.7 10 Noroeste 30 Noroeste 0 -- -- 57
2018-05-14 22:00:00 8.6 11 Noroeste 31 Noroeste 0 -- -- 55
2018-05-14 21:00:00 8.9 6 Norte 27 Noroeste 0 -- -- 53
2018-05-14 20:00:00 9.1 7 Norte 26 Noroeste 0 -- -- 55
2018-05-14 19:00:00 9.5 8 Noroeste 28 Norte 0 -- -- 53
2018-05-14 18:00:00 9.6 8 Norte 30 Norte 0 -- -- 50
2018-05-14 17:00:00 8.7 12 Noroeste 32 Noroeste 0 -- -- 53
2018-05-14 16:00:00 9 9 Norte 35 Noroeste 0 -- -- 50
2018-05-14 15:00:00 10 15 Noroeste 34 Norte 0 -- -- 43
2018-05-14 14:00:00 9.9 8 Norte 28 Noroeste 0 -- -- 44
2018-05-14 13:00:00 9.8 9 Noroeste 22 Noroeste 0 -- -- 46
2018-05-14 12:00:00 9.7 11 Norte 24 Noroeste 0 -- -- 46
2018-05-14 11:00:00 9.3 9 Noroeste 31 Norte 0 -- -- 44
2018-05-14 10:00:00 8 8 Norte 27 Norte 0 -- -- 49
2018-05-14 09:00:00 6.8 10 Norte 23 Noroeste 0 -- -- 50
2018-05-14 08:00:00 6 5 Norte 14 Norte 0 -- -- 55
2018-05-14 07:00:00 5 5 Nordeste 26 Noroeste 0 -- -- 58
2018-05-14 06:00:00 5.1 4 Norte 13 Noroeste 0 -- -- 53
2018-05-14 05:00:00 4.8 4 Noroeste 14 Norte 0 -- -- 49
2018-05-14 04:00:00 3.7 0 Calma 6 Nordeste 0 -- -- 73
2018-05-14 03:00:00 4.5 0 Calma 4 Sur 0 -- -- 73
2018-05-14 02:00:00 5.6 0 Calma 8 Norte 0 -- -- 65
2018-05-14 01:00:00 5.7 0 Calma 12 Oeste 0 -- -- 71
2018-05-11 20:00:00 -- -- -- -- -- -- -- -- --
2018-05-11 19:00:00 -- -- -- -- -- -- -- -- --
2018-05-11 18:00:00 23.8 6 Sur 17 Sur 0 -- -- 37
2018-05-11 17:00:00 24.2 7 Sudoeste 18 Sur 0 -- -- 33
2018-05-11 16:00:00 23.5 7 Sudoeste 19 Sur 0 -- -- 33
2018-05-11 15:00:00 22.1 6 Sudoeste 13 Sur 0 -- -- 31
2018-05-11 14:00:00 20.4 5 Sudeste 12 Sur 0 -- -- 27
2018-05-11 13:00:00 18.2 4 Sudeste 8 Sur 0 -- -- 37
2018-05-11 12:00:00 15.7 4 Sur 8 Sur 0 -- -- 50
2018-05-11 11:00:00 12.7 2 Sur 5 Sudeste 0 -- -- 59
2018-05-11 10:00:00 9.1 0 Calma 4 Este 0 -- -- 71
2018-05-11 09:00:00 3.9 0 Calma -- -- 0 -- -- 95
2018-05-11 08:00:00 3.1 0 Calma 2 Sur 0 -- -- 94
2018-05-11 07:00:00 3.3 0 Calma 2 Sudeste 0 -- -- 93
2018-05-11 06:00:00 3.5 0 Calma 4 Sudoeste 0 -- -- 92
2018-05-11 05:00:00 4.2 0 Calma 2 Sudoeste 0 -- -- 91
2018-05-11 04:00:00 4.8 0 Calma 3 Sur 0 -- -- 89
2018-05-11 03:00:00 5.7 0 Calma 3 Sur 0 -- -- 86
2018-05-11 02:00:00 6.5 0 Calma 3 Oeste 0 -- -- 82
2018-05-11 01:00:00 7.6 0 Calma 3 Norte 0 -- -- 77
2018-05-11 00:00:00 8.6 0 Calma 3 Sudoeste 0 -- -- 71
2018-05-10 23:00:00 10.1 0 Calma 6 Este 0 -- -- 65
2018-05-10 22:00:00 12.5 0 Calma 16 Noroeste 0 -- -- 52
2018-05-10 21:00:00 13.5 10 Norte 25 Noroeste 0 -- -- 47
2018-05-10 20:00:00 13.7 10 Norte 28 Noroeste 0 -- -- 49
2018-05-10 19:00:00 14.9 11 Norte 34 Norte 0 -- -- 46
2018-05-10 18:00:00 15.3 13 Norte 32 Norte 0 -- -- 46
2018-05-10 17:00:00 17.4 15 Norte 39 Noroeste 0 -- -- 42
2018-05-10 16:00:00 17.8 17 Norte 38 Noroeste 0 -- -- 41
2018-05-10 15:00:00 18 14 Norte 33 Noroeste 0 -- -- 40
2018-05-10 14:00:00 17.6 9 Norte 23 Oeste 0 -- -- 38
2018-05-10 13:00:00 16.4 11 Norte 23 Norte 0 -- -- 40
2018-05-10 12:00:00 14.1 12 Norte 26 Norte 0 -- -- 45
2018-05-10 11:00:00 14.2 8 Noroeste 24 Noroeste 0 -- -- 42
2018-05-10 10:00:00 13.1 6 Noroeste 17 Noroeste 0 -- -- 48
2018-05-10 09:00:00 12.1 6 Norte 17 Norte 0 -- -- 53
2018-05-10 08:00:00 11.4 5 Norte 19 Noroeste 0 -- -- 55
2018-05-10 07:00:00 11.5 3 Nordeste 23 Oeste 0 -- -- 58
2018-05-10 06:00:00 12.2 8 Norte 26 Noroeste 0 -- -- 56
2018-05-10 05:00:00 12.5 6 Norte 18 Oeste 0 -- -- 58
2018-05-10 04:00:00 11.8 0 Calma 13 Nordeste 0 -- -- 65
2018-05-10 03:00:00 11.2 2 Nordeste 12 Noroeste 0 -- -- 70
2018-05-10 02:00:00 11.4 3 Sur 10 Este 0 -- -- 71
2018-05-10 01:00:00 13.8 4 Este 10 Nordeste 0 -- -- 58
2018-05-10 00:00:00 14.3 3 Nordeste 14 Norte 0 -- -- 58
2018-05-09 23:00:00 14.7 5 Norte 16 Norte 0 -- -- 58
2018-05-09 22:00:00 14.5 5 Norte 11 Norte 0 -- -- 57
2018-05-09 21:00:00 14.7 3 Nordeste 22 Noroeste 0 -- -- 59
2018-05-09 20:00:00 16 10 Noroeste 27 Oeste 0 -- -- 53
2018-05-09 19:00:00 19.8 10 Noroeste 22 Noroeste 0 -- -- 41
2018-05-09 18:00:00 20.9 10 Norte 25 Noroeste 0 -- -- 36
2018-05-09 17:00:00 20.8 10 Norte 24 Norte 0 -- -- 37
2018-05-09 16:00:00 20.4 12 Noroeste 30 Nordeste 0 -- -- 37
2018-05-09 15:00:00 19.8 12 Norte 29 Norte 0 -- -- 35
2018-05-09 14:00:00 19.3 11 Norte 33 Noroeste 0 -- -- 40
2018-05-09 13:00:00 18.7 12 Norte 28 Noroeste 0 -- -- 40
2018-05-09 12:00:00 18 10 Norte 31 Norte 0 -- -- 45
2018-05-09 11:00:00 17 10 Noroeste 21 Oeste 0 -- -- 45
2018-05-09 10:00:00 15.5 8 Noroeste 17 Noroeste 0 -- -- 51
2018-05-09 09:00:00 11.7 0 Calma 7 Nordeste 0 -- -- 84
2018-05-09 08:00:00 9.8 0 Calma 4 Oeste 0 -- -- 89
2018-05-09 07:00:00 9.3 0 Calma 5 Este 0 -- -- 89
2018-05-09 06:00:00 9.4 0 Calma 3 Nordeste 0 -- -- 87
2018-05-09 05:00:00 10.1 3 Sur 5 Sudoeste 0 -- -- 83
2018-05-09 04:00:00 11.6 0 Calma 6 Oeste 0 -- -- 77
2018-05-09 03:00:00 13.6 4 Norte 16 Nordeste 0 -- -- 65
2018-05-09 02:00:00 13.6 3 Norte 13 Nordeste 0 -- -- 65
2018-05-09 01:00:00 13.7 6 Este 15 Este 0 -- -- 64
2018-05-09 00:00:00 13.9 7 Nordeste 14 Noroeste 0 -- -- 64
2018-05-08 23:00:00 15 6 Norte 24 Norte 0 -- -- 58
2018-05-08 22:00:00 14.3 6 Nordeste 13 Nordeste 0 -- -- 60
2018-05-08 21:00:00 15.5 4 Norte 14 Norte 0 -- -- 57
2018-05-08 20:00:00 16.7 4 Norte 23 Norte 0 -- -- 53
2018-05-08 19:00:00 18.4 10 Norte 22 Noroeste 0 -- -- 46
2018-05-08 18:00:00 18.6 7 Norte 17 Norte 0 -- -- 46
2018-05-08 17:00:00 15.3 6 Norte 24 Norte 0 -- -- 58
2018-05-08 16:00:00 16 10 Norte 21 Noroeste 0 -- -- 58
2018-05-08 15:00:00 15.2 4 Nordeste 13 Nordeste 0 -- -- 64
2018-05-08 14:00:00 14.1 7 Nordeste 16 Norte 0.2 -- -- 71
2018-05-08 13:00:00 15.5 5 Norte 18 Noroeste 0 -- -- 66
2018-05-08 12:00:00 15.5 7 Norte 18 Noroeste 0.2 -- -- 71
2018-05-08 11:00:00 13.6 0 Calma 4 Noroeste 0 -- -- 79
2018-05-08 10:00:00 11.4 3 Sur 5 Sudoeste 0 -- -- 88
2018-05-08 09:00:00 9.9 2 Sudeste 4 Sudeste 0 -- -- 93
2018-05-08 08:00:00 9.1 0 Calma 4 Sur 0 -- -- 96
2018-05-08 07:00:00 8.7 0 Calma 4 Sudoeste 0 -- -- 96
2018-05-08 06:00:00 8.9 0 Calma 4 Sudeste 0.2 -- -- 94
2018-05-08 05:00:00 9.1 2 Sudoeste 5 Este 0 -- -- 92
2018-05-08 04:00:00 9.3 0 Calma 17 Nordeste 0 -- -- 89
2018-05-08 03:00:00 9.8 10 Nordeste 22 Nordeste 3.8 -- -- 81
2018-05-08 02:00:00 10.9 4 Norte 14 Norte 4.8 -- -- 89
2018-05-08 01:00:00 11.5 0 Calma 5 Nordeste 5.4 -- -- 94
2018-05-08 00:00:00 11.9 0 Calma 6 Norte 5.6 -- -- 93
2018-05-07 23:00:00 12.3 5 Nordeste 14 Nordeste 1 -- -- 88
2018-05-07 22:00:00 12.9 8 Nordeste 17 Nordeste 3 -- -- 81
2018-05-07 21:00:00 14.3 5 Nordeste 20 Norte 1.4 -- -- 83
2018-05-07 20:00:00 15.8 4 Norte 17 Nordeste 0.2 -- -- 77
2018-05-07 19:00:00 19.9 6 Norte 25 Noroeste 0.2 -- -- 55
2018-05-07 18:00:00 21.3 14 Noroeste 27 Noroeste 0 -- -- 44
2018-05-07 17:00:00 22.9 14 Noroeste 29 Noroeste 0 -- -- 38
2018-05-07 16:00:00 23 13 Noroeste 28 Noroeste 0 -- -- 40
2018-05-07 15:00:00 22 13 Norte 26 Noroeste 0 -- -- 43
2018-05-07 14:00:00 19.5 6 Norte 33 Noroeste 0 -- -- 45
2018-05-07 13:00:00 21.1 9 Noroeste 24 Noroeste 0 -- -- 44
2018-05-07 12:00:00 16.7 5 Sur 9 Sur 0 -- -- 77
2018-05-07 11:00:00 13.8 0 Calma 3 Sur 0 -- -- 77
2018-05-07 10:00:00 12.7 0 Calma 4 Noroeste 0 -- -- 84
2018-05-07 09:00:00 10.7 0 Calma 5 Sur 0 -- -- 94
2018-05-07 08:00:00 10 0 Calma 4 Sudoeste 0 -- -- 95
2018-05-07 07:00:00 9.9 0 Calma 4 Noroeste 0 -- -- 95
2018-05-07 06:00:00 10.2 0 Calma 4 Sudoeste 0 -- -- 94
2018-05-07 05:00:00 10.3 0 Calma 4 Noroeste 0 -- -- 93
2018-05-07 04:00:00 10.4 0 Calma 4 Sur 0 -- -- 93
2018-05-07 03:00:00 11.2 2 Noroeste 4 Norte 0 -- -- 91
2018-05-07 02:00:00 12 0 Calma 4 Sudeste 0 -- -- 90
2018-05-07 01:00:00 13.1 0 Calma 4 Noroeste 0.2 -- -- 84
2018-05-07 00:00:00 14 0 Calma 6 Oeste 0 -- -- 70
2018-05-06 23:00:00 14.8 0 Calma 5 Oeste 0 -- -- 67
2018-05-06 22:00:00 17 0 Calma 11 Nordeste 0 -- -- 56
2018-05-06 21:00:00 17.9 0 Calma 11 Norte 0 -- -- 50
2018-05-06 20:00:00 18.9 7 Noroeste 21 Noroeste 0 -- -- 44
2018-05-06 19:00:00 20.4 11 Noroeste 21 Noroeste 0 -- -- 43
2018-05-06 18:00:00 20 6 Noroeste 30 Noroeste 0 -- -- 42
2018-05-06 17:00:00 21 14 Noroeste 26 Norte 0 -- -- 40
2018-05-06 16:00:00 20.6 9 Norte 27 Noroeste 0 -- -- 41
2018-05-06 15:00:00 19.7 11 Noroeste 20 Noroeste 0 -- -- 42
2018-05-06 14:00:00 19.1 7 Noroeste 14 Noroeste 0 -- -- 40
2018-05-06 13:00:00 16 0 Calma 5 Sur 0 -- -- 56
2018-05-06 12:00:00 13.9 0 Calma 5 Sur 0 -- -- 58
2018-05-06 11:00:00 11.6 0 Calma 5 Sur 0 -- -- 68
2018-05-06 10:00:00 8.9 3 Sur 4 Noroeste 0 -- -- 79
2018-05-06 09:00:00 4.6 0 Calma 3 Sudeste 0 -- -- 96
2018-05-06 08:00:00 3.8 2 Sur 4 Este 0 -- -- 95
2018-05-06 07:00:00 3.6 0 Calma 3 Nordeste 0 -- -- 94
2018-05-06 06:00:00 4 0 Calma 4 Sur 0 -- -- 93
2018-05-06 05:00:00 4.4 0 Calma 4 Sur 0 -- -- 93
2018-05-06 04:00:00 4.7 0 Calma 3 Sur 0 -- -- 93
2018-05-06 03:00:00 5.6 0 Calma 4 Sur 0 -- -- 90
2018-05-06 02:00:00 6.1 0 Calma 4 Norte 0 -- -- 89
2018-05-06 01:00:00 7.3 0 Calma 2 Sudeste 0 -- -- 85
2018-05-06 00:00:00 8.6 0 Calma 3 Sur 0 -- -- 80
2018-05-05 23:00:00 10.5 0 Calma 6 Sudoeste 0 -- -- 73
2018-05-05 22:00:00 12.6 2 Sudoeste 12 Nordeste 0 -- -- 66
2018-05-05 21:00:00 14.5 5 Nordeste 16 Norte 0 -- -- 58
2018-05-05 20:00:00 15.7 8 Norte 18 Noroeste 0 -- -- 53
2018-05-05 19:00:00 16.4 8 Norte 24 Noroeste 0 -- -- 52
2018-05-05 18:00:00 16.7 9 Norte 21 Norte 0 -- -- 51
2018-05-05 17:00:00 16.5 12 Noroeste 21 Norte 0 -- -- 52
2018-05-05 16:00:00 16.2 9 Noroeste 21 Noroeste 0 -- -- 55
2018-05-05 15:00:00 15.5 6 Norte 17 Noroeste 0 -- -- 58
2018-05-05 14:00:00 15.9 6 Noroeste 17 Noroeste 0 -- -- 55
2018-05-05 13:00:00 15.5 8 Noroeste 22 Norte 0 -- -- 58
2018-05-05 12:00:00 14.7 8 Norte 15 Norte 0 -- -- 59
2018-05-05 11:00:00 13.9 6 Nordeste 17 Nordeste 0 -- -- 64
2018-05-05 10:00:00 12.3 6 Nordeste 12 Nordeste 0 -- -- 71
2018-05-05 09:00:00 11.6 4 Nordeste 18 Nordeste 0 -- -- 70
2018-05-05 08:00:00 11 5 Norte 18 Norte 0 -- -- 71
2018-05-05 07:00:00 10.8 6 Nordeste 22 Norte 0 -- -- 70
2018-05-05 06:00:00 10.6 8 Norte 21 Nordeste 0 -- -- 69
2018-05-05 05:00:00 10.4 11 Nordeste 23 Nordeste 0 -- -- 71
2018-05-05 04:00:00 10.4 10 Nordeste 27 Nordeste 0 -- -- 70
2018-05-05 03:00:00 10.1 14 Nordeste 24 Nordeste 0 -- -- 72
2018-05-05 02:00:00 9.9 13 Nordeste 25 Nordeste 0 -- -- 74
2018-05-05 01:00:00 10.2 8 Nordeste 19 Este 0 -- -- 73
2018-05-05 00:00:00 10.6 5 Nordeste 22 Norte 0 -- -- 69
2018-05-04 23:00:00 11.3 10 Norte 25 Noroeste 0 -- -- 63
2018-05-04 22:00:00 12.1 10 Norte 27 Norte 0 -- -- 56
2018-05-04 21:00:00 12.2 7 Norte 26 Norte 0 -- -- 56
2018-05-04 20:00:00 12.9 11 Norte 35 Noroeste 0 -- -- 54
2018-05-04 19:00:00 14.5 16 Noroeste 32 Noroeste 0 -- -- 49
2018-05-04 18:00:00 13.4 10 Noroeste 33 Noroeste 0 -- -- 53
2018-05-04 17:00:00 13.6 9 Norte 32 Noroeste 0 -- -- 52
2018-05-04 16:00:00 13.4 16 Noroeste 39 Oeste 0 -- -- 54
2018-05-04 15:00:00 13.8 17 Norte 44 Noroeste 0 -- -- 54
2018-05-04 14:00:00 14.3 21 Norte 43 Norte 0 -- -- 50
2018-05-04 13:00:00 12.2 16 Noroeste 39 Noroeste 0 -- -- 51
2018-05-04 12:00:00 10.8 18 Noroeste 35 Noroeste 0 -- -- 55
2018-05-04 11:00:00 10 14 Norte 36 Noroeste 0 -- -- 57
2018-05-04 10:00:00 9.4 13 Norte 34 Noroeste 0 -- -- 57
2018-05-04 09:00:00 9 13 Norte 33 Norte 0 -- -- 58
2018-05-04 08:00:00 9.1 10 Norte 32 Noroeste 0 -- -- 58
2018-05-04 07:00:00 8.9 10 Norte 28 Noroeste 0 -- -- 59
2018-05-04 06:00:00 8.8 12 Norte 24 Norte 0 -- -- 61
2018-05-04 05:00:00 8.6 9 Norte 24 Noroeste 0 -- -- 63
2018-05-04 04:00:00 8.5 8 Norte 30 Norte 0 -- -- 68
2018-05-04 03:00:00 9.1 10 Norte 35 Noroeste 0 -- -- 65
2018-05-04 02:00:00 9.4 13 Norte 30 Noroeste 0 -- -- 61
2018-05-04 01:00:00 9.6 12 Norte 37 Noroeste 0 -- -- 60
2018-05-04 00:00:00 9.2 12 Norte 28 Noroeste 0 -- -- 62
2018-05-03 23:00:00 9.1 12 Norte 30 Norte 0 -- -- 64
2018-05-03 22:00:00 9.3 12 Norte 28 Noroeste 0 -- -- 63
2018-05-03 21:00:00 9.8 13 Norte 36 Noroeste 0 -- -- 60
2018-05-03 20:00:00 9.9 16 Noroeste 31 Noroeste 0 -- -- 61
2018-05-03 19:00:00 10 12 Norte 32 Noroeste 0 -- -- 64
2018-05-03 18:00:00 9.6 15 Norte 32 Norte 0.2 -- -- 69
2018-05-03 17:00:00 11 14 Nordeste 37 Nordeste 0 -- -- 60
2018-05-03 16:00:00 12.8 10 Norte 31 Norte 0 -- -- 50
2018-05-03 15:00:00 11.2 14 Nordeste 44 Nordeste 0 -- -- 55
2018-05-03 14:00:00 10.6 10 Norte 30 Norte 0 -- -- 62
2018-05-03 13:00:00 10.1 9 Norte 27 Norte 0.2 -- -- 63
2018-05-03 12:00:00 9 9 Norte 22 Norte 0 -- -- 68
2018-05-03 11:00:00 8.2 12 Norte -- -- -- -- -- 72
2018-05-03 10:00:00 8 9 Norte 33 Norte 1.8 -- -- --
2018-05-03 09:00:00 8.2 6 Norte 16 Norte 1.4 -- -- --
2018-05-03 08:00:00 7.6 2 Norte 11 Norte 1 -- -- --
2018-05-03 07:00:00 7.2 2 Nordeste 17 Nordeste 1 -- -- --
2018-05-03 06:00:00 7.3 3 Nordeste 19 Nordeste 0.8 -- -- --
2018-05-03 05:00:00 7.3 9 Nordeste 24 Nordeste 0.4 -- -- --
2018-05-03 04:00:00 7.4 9 Nordeste 23 Nordeste 0.4 -- -- --
2018-05-03 03:00:00 7.9 5 Nordeste 18 Este 0 -- -- --
2018-05-03 02:00:00 8.4 8 Nordeste 17 Este 0 -- -- --
2018-05-03 01:00:00 8.7 7 Nordeste 21 Norte 0 -- -- --
2018-05-03 00:00:00 9.5 7 Norte 22 Norte 0 -- -- --
2018-05-02 23:00:00 9.7 8 Norte 23 Noroeste 0 -- -- --
2018-05-02 22:00:00 10 6 Norte 18 Noroeste 0 -- -- --
2018-05-02 21:00:00 10.3 8 Noroeste 21 Noroeste 0 -- -- --
2018-05-02 20:00:00 11 8 Noroeste 21 Noroeste 0 -- -- --
2018-05-02 19:00:00 12.2 9 Norte 22 Noroeste 0 -- -- --
2018-05-02 18:00:00 13.9 10 Norte 23 Norte 0 -- -- --
2018-05-02 17:00:00 15 8 Nordeste 23 Norte 0 -- -- --
2018-05-02 16:00:00 14.9 10 Norte 26 Nordeste 0 -- -- --
2018-05-02 15:00:00 14.1 9 Norte 23 Norte 0 -- -- --
2018-05-02 14:00:00 14.1 9 Noroeste 24 Norte 0 -- -- --
2018-05-02 13:00:00 13 7 Norte 22 Norte 0 -- -- --
2018-05-02 12:00:00 11.8 5 Norte 17 Nordeste 0 -- -- --
2018-05-02 11:00:00 10.7 8 Nordeste 22 Este 0 -- -- --
2018-05-02 10:00:00 4 2 Este 6 Sudeste 0 -- -- --
2018-05-02 09:00:00 -0.9 0 Calma 3 Sudoeste 0 -- -- --
2018-05-02 08:00:00 -1.5 0 Calma 3 Sur 0 -- -- --
2018-05-02 07:00:00 -1.1 0 Calma 3 Sudeste 0 -- -- --
2018-05-02 06:00:00 -0.8 0 Calma 2 Este 0 -- -- --
2018-05-02 05:00:00 -0.1 0 Calma 4 Sur 0 -- -- --
2018-05-02 04:00:00 0.9 0 Calma 2 Sur 0 -- -- --
2018-05-02 03:00:00 1.9 0 Calma 2 Sudoeste 0 -- -- --
2018-05-02 02:00:00 3.4 0 Calma 4 Norte 0 -- -- --
2018-05-02 01:00:00 5.4 3 Norte 10 Norte 0 -- -- --
2018-05-02 00:00:00 6.3 4 Norte 12 Norte 0 -- -- --
2018-05-01 23:00:00 6.7 2 Norte 6 Norte 0 -- -- --
2018-05-01 22:00:00 7.5 4 Norte 14 Noroeste 0 -- -- --
2018-05-01 21:00:00 7.9 3 Norte 10 Noroeste 0 -- -- --
2018-05-01 20:00:00 8.7 5 Noroeste 21 Norte 0 -- -- --
2018-05-01 19:00:00 10.4 7 Norte 24 Norte 0 -- -- --
2018-05-01 18:00:00 10.3 9 Nordeste 21 Norte 0 -- -- --
2018-05-01 17:00:00 10 9 Norte 27 Norte 0 -- -- --
2018-05-01 16:00:00 10.2 13 Norte 37 Noroeste 0 -- -- --
2018-05-01 15:00:00 11.3 10 Noroeste 26 Noroeste 0 -- -- --
2018-05-01 14:00:00 9.9 9 Noroeste 28 Norte 0 -- -- --
2018-05-01 13:00:00 9.1 12 Noroeste 24 Noroeste 0 -- -- --
2018-05-01 12:00:00 8.5 6 Norte 25 Norte 0 -- -- --
2018-05-01 11:00:00 8.3 9 Norte 26 Norte 0 -- -- --
2018-05-01 10:00:00 7.7 17 Noroeste 32 Norte 0 -- -- --
2018-05-01 09:00:00 1.6 0 Calma 3 Norte 0 -- -- --
2018-05-01 08:00:00 0.7 0 Calma 3 Sur 0 -- -- --
2018-05-01 07:00:00 0.8 0 Calma 2 Sudoeste 0 -- -- --
2018-05-01 06:00:00 0.8 0 Calma 3 Oeste 0 -- -- --
2018-05-01 05:00:00 1.1 0 Calma 3 Sudeste 0 -- -- --
2018-05-01 04:00:00 2.1 0 Calma 4 Sur 0 -- -- --
2018-05-01 03:00:00 3.4 0 Calma 2 Sudeste 0 -- -- --
2018-05-01 02:00:00 4.8 0 Calma 12 Este 0 -- -- --
2018-05-01 01:00:00 5.4 6 Este 18 Nordeste 0 -- -- --
2018-05-01 00:00:00 6.2 3 Norte 25 Noroeste 0 -- -- --
2018-04-30 23:00:00 7 5 Norte 21 Noroeste 0 -- -- --
2018-04-30 22:00:00 7.6 3 Norte 6 Nordeste 0 -- -- --
2018-04-30 21:00:00 8.4 4 Sudeste 11 Sur 0 -- -- --
2018-04-30 20:00:00 10 6 Sur 17 Sur 0 -- -- --
2018-04-30 19:00:00 10.7 4 Sur 16 Sur 0 -- -- --
2018-04-30 18:00:00 11.2 7 Sur 14 Sur 0 -- -- --
2018-04-30 17:00:00 10.6 9 Sur 18 Sur 0 -- -- --
2018-04-30 16:00:00 11 10 Sur 26 Sur 0 -- -- --
2018-04-30 15:00:00 11.1 9 Sur 25 Sur 0 -- -- --
2018-04-30 14:00:00 11 10 Sur 24 Sur 0 -- -- --
2018-04-30 13:00:00 11 10 Sur 27 Sur 0 -- -- --
2018-04-30 12:00:00 9.8 12 Sur 25 Sur 0 -- -- --
2018-04-30 11:00:00 8.9 9 Sur 21 Sudoeste 0 -- -- --
2018-04-30 10:00:00 6.4 7 Sudeste 17 Sudeste 0 -- -- --
2018-04-30 09:00:00 3.3 0 Calma 3 Sudeste 0 -- -- --
2018-04-30 08:00:00 2.4 0 Calma 4 Sur 0 -- -- --
2018-04-30 07:00:00 2.2 0 Calma 5 Norte 0 -- -- --
2018-04-30 06:00:00 2.4 0 Calma 4 Noroeste 0 -- -- --
2018-04-30 05:00:00 2.9 0 Calma 5 Sur 0 -- -- --
2018-04-30 04:00:00 3.3 0 Calma 4 Sur 0 -- -- --
2018-04-30 03:00:00 3.8 0 Calma 5 Noroeste 0 -- -- --
2018-04-30 02:00:00 4.5 2 Sur 6 Sur 0 -- -- --
2018-04-30 01:00:00 5.1 3 Noroeste 6 Nordeste 0 -- -- --
2018-04-30 00:00:00 5.6 2 Nordeste 5 Sudoeste 0 -- -- --
2018-04-29 23:00:00 6 2 Sudoeste 8 Sudeste 0 -- -- --
2018-04-29 22:00:00 6.9 4 Sudeste 10 Sudeste 0 -- -- --
2018-04-29 21:00:00 7.4 4 Este 14 Este 0 -- -- --
2018-04-29 20:00:00 8.6 4 Sudeste 9 Sur 0 -- -- --
2018-04-29 19:00:00 9 4 Sudoeste 15 Sur 0 -- -- --
2018-04-29 18:00:00 9.3 5 Sur 18 Sur 0 -- -- --
2018-04-29 17:00:00 8.9 3 Sur 17 Sudoeste 0 -- -- --
2018-04-29 16:00:00 9.1 7 Sur 23 Sur 0.4 -- -- --
2018-04-29 15:00:00 10.4 3 Sudeste 8 Sudeste 0 -- -- --
2018-04-29 14:00:00 8.4 4 Sudeste 8 Sudeste 0 -- -- --
2018-04-29 13:00:00 5.6 0 Calma 6 Este 1.2 -- -- --
2018-04-29 12:00:00 5.5 3 Este 14 Sudeste 2.2 -- -- --
2018-04-29 11:00:00 6.5 6 Sudeste 14 Sur 5.8 -- -- --
2018-04-29 10:00:00 9.2 5 Sudeste 12 Sudeste 3.4 -- -- --
2018-04-29 09:00:00 10 4 Este 14 Sudeste 0.8 -- -- --
2018-04-29 08:00:00 9.9 4 Sudeste 18 Este 1.2 -- -- --
2018-04-29 07:00:00 12 11 Sur 33 Sudeste 0 -- -- --
2018-04-29 06:00:00 12.5 12 Sur 30 Sudoeste 0 -- -- --
2018-04-29 05:00:00 12.6 9 Sur 22 Sudoeste 0 -- -- --
2018-04-29 04:00:00 12.3 10 Sur 28 Sudeste 0 -- -- --
2018-04-29 03:00:00 12.7 10 Sudeste 24 Sudeste 0 -- -- --
2018-04-29 02:00:00 11.8 2 Oeste 15 Sur 2 -- -- --
2018-04-29 01:00:00 13.6 6 Sur 23 Sur 2 -- -- --
2018-04-29 00:00:00 15 10 Sur 32 Sudeste 0 -- -- --
2018-04-28 23:00:00 14.7 5 Sur 17 Sur 0 -- -- --
2018-04-28 22:00:00 15 3 Sur 25 Sur 0 -- -- --
2018-04-28 21:00:00 15.7 10 Sur 28 Sudeste 0 -- -- --
2018-04-28 20:00:00 16.6 13 Sur 38 Sudeste 0 -- -- --
2018-04-28 19:00:00 18 14 Sur 42 Sudeste 0 -- -- --
2018-04-28 18:00:00 18.4 21 Sudeste 42 Sudeste 0 -- -- --
2018-04-28 17:00:00 18.5 19 Sur 36 Sur 0 -- -- --
2018-04-28 16:00:00 18 16 Sur 33 Sudeste 0 -- -- --
2018-04-28 15:00:00 17.9 15 Sur 27 Sudeste 0 -- -- --
2018-04-28 14:00:00 17 13 Sur 31 Sudeste 0 -- -- --
2018-04-28 13:00:00 16.4 13 Sur 28 Sur 0 -- -- --
2018-04-28 12:00:00 15.8 13 Sur 31 Sudeste 0 -- -- --
2018-04-28 11:00:00 14.8 7 Sur 18 Sudoeste 0 -- -- --
2018-04-28 10:00:00 13.6 8 Sur 18 Sur 0 -- -- --
2018-04-28 09:00:00 12 4 Sudeste 12 Sur 0 -- -- --
2018-04-28 08:00:00 10.5 3 Norte 5 Norte 0.2 -- -- --
2018-04-28 07:00:00 10.5 0 Calma 4 Norte 0.2 -- -- --
2018-04-28 06:00:00 10.4 0 Calma 5 Sur 0 -- -- --
2018-04-28 05:00:00 10.6 0 Calma 4 Nordeste 0 -- -- --
2018-04-28 04:00:00 10.8 0 Calma 6 Este 1 -- -- --
2018-04-28 03:00:00 11.1 0 Calma 8 Este 1.8 -- -- --
2018-04-28 02:00:00 11.1 3 Sur 6 Sudeste 2.6 -- -- --
2018-04-28 01:00:00 11.4 2 Sur 6 Sudeste 2.2 -- -- --
2018-04-28 00:00:00 11.6 3 Nordeste 34 Sudeste 5.8 -- -- --